Time,TemperatureF,DewpointF,PressureIn,WindDirection,WindDirectionDegrees,WindSpeedMPH,WindSpeedGustMPH,Humidity,HourlyPrecipIn,Conditions,Clouds,dailyrainin,SoftwareType,DateUTC
2015-09-03 00:03:00,63.9,62.1,29.91,ESE,116,0.0,0.0,94,0.00,,,0.00,Wunderground v.1.15,2015-09-03 04:03:00,
2015-09-03 00:08:00,63.9,62.1,29.91,ESE,116,0.0,0.0,94,0.00,,,0.00,Wunderground v.1.15,2015-09-03 04:08:00,
2015-09-03 00:14:00,63.8,62.0,29.91,ESE,115,0.0,0.0,94,0.00,,,0.00,Wunderground v.1.15,2015-09-03 04:14:00,
2015-09-03 00:20:00,63.7,61.9,29.91,ESE,115,0.0,0.0,94,0.00,,,0.00,Wunderground v.1.15,2015-09-03 04:20:00,
2015-09-03 00:26:00,63.7,61.9,29.91,ESE,116,0.0,0.0,94,0.00,,,0.00,Wunderground v.1.15,2015-09-03 04:26:00,
2015-09-03 00:32:00,63.6,61.8,29.91,ESE,116,0.0,0.0,94,0.00,,,0.00,Wunderground v.1.15,2015-09-03 04:32:00,
2015-09-03 00:38:00,63.6,61.8,29.91,ESE,115,0.0,0.0,94,0.00,,,0.00,Wunderground v.1.15,2015-09-03 04:38:00,
2015-09-03 00:44:00,63.6,61.8,29.91,ESE,115,0.0,0.0,94,0.00,,,0.00,Wunderground v.1.15,2015-09-03 04:44:00,
2015-09-03 00:49:00,63.5,61.7,29.91,ESE,115,0.0,0.0,94,0.00,,,0.00,Wunderground v.1.15,2015-09-03 04:49:00,
2015-09-03 00:55:00,63.6,62.1,29.91,ESE,115,0.0,0.0,95,0.00,,,0.00,Wunderground v.1.15,2015-09-03 04:55:00,
2015-09-03 01:01:00,63.6,61.8,29.90,ESE,115,0.0,0.0,94,0.00,,,0.00,Wunderground v.1.15,2015-09-03 05:01:00,
2015-09-03 01:07:00,63.6,61.8,29.90,ESE,115,0.0,0.0,94,0.00,,,0.00,Wunderground v.1.15,2015-09-03 05:07:00,
2015-09-03 01:13:00,63.5,62.0,29.90,ESE,115,0.0,0.0,95,0.00,,,0.00,Wunderground v.1.15,2015-09-03 05:13:00,
2015-09-03 01:19:00,63.5,62.0,29.90,ESE,116,0.0,0.0,95,0.00,,,0.00,Wunderground v.1.15,2015-09-03 05:19:00,
2015-09-03 01:25:00,63.4,61.9,29.90,ESE,116,0.0,0.0,95,0.00,,,0.00,Wunderground v.1.15,2015-09-03 05:25:00,
2015-09-03 01:31:00,63.4,61.9,29.90,ESE,115,0.0,0.0,95,0.00,,,0.00,Wunderground v.1.15,2015-09-03 05:31:00,
2015-09-03 01:36:00,63.3,61.8,29.90,ESE,116,0.0,0.0,95,0.00,,,0.00,Wunderground v.1.15,2015-09-03 05:36:00,
2015-09-03 01:42:00,63.3,61.8,29.90,ESE,115,0.0,0.0,95,0.00,,,0.00,Wunderground v.1.15,2015-09-03 05:42:00,
2015-09-03 01:48:00,63.3,61.8,29.89,ESE,115,0.0,0.0,95,0.00,,,0.00,Wunderground v.1.15,2015-09-03 05:48:00,
2015-09-03 01:54:00,63.3,61.8,29.89,ESE,115,0.0,0.0,95,0.00,,,0.00,Wunderground v.1.15,2015-09-03 05:54:00,
2015-09-03 01:59:00,63.3,61.8,29.89,ESE,115,0.0,0.0,95,0.00,,,0.00,Wunderground v.1.15,2015-09-03 05:59:00,
2015-09-03 02:04:00,63.3,61.8,29.89,ESE,115,0.0,0.0,95,0.00,,,0.00,Wunderground v.1.15,2015-09-03 06:04:00,
2015-09-03 02:09:00,63.3,61.8,29.89,ESE,116,0.0,0.0,95,0.00,,,0.00,Wunderground v.1.15,2015-09-03 06:09:00,
2015-09-03 02:14:00,63.2,61.7,29.89,ESE,115,0.0,0.0,95,0.00,,,0.00,Wunderground v.1.15,2015-09-03 06:14:00,
2015-09-03 02:19:00,63.1,61.6,29.88,ESE,115,0.0,0.0,95,0.00,,,0.00,Wunderground v.1.15,2015-09-03 06:19:00,
2015-09-03 02:24:00,63.1,61.6,29.88,ESE,115,0.0,0.0,95,0.00,,,0.00,Wunderground v.1.15,2015-09-03 06:24:00,
2015-09-03 02:29:00,63.0,61.5,29.88,ESE,115,0.0,0.0,95,0.00,,,0.00,Wunderground v.1.15,2015-09-03 06:29:00,
2015-09-03 02:34:00,62.9,61.4,29.88,ESE,115,0.0,0.0,95,0.00,,,0.00,Wunderground v.1.15,2015-09-03 06:34:00,
2015-09-03 02:39:00,62.8,61.3,29.88,ESE,115,0.0,0.0,95,0.00,,,0.00,Wunderground v.1.15,2015-09-03 06:39:00,
2015-09-03 02:44:00,62.8,61.3,29.88,ESE,116,0.0,0.0,95,0.00,,,0.00,Wunderground v.1.15,2015-09-03 06:44:00,
2015-09-03 02:49:00,62.8,61.3,29.88,ESE,115,0.0,0.0,95,0.00,,,0.00,Wunderground v.1.15,2015-09-03 06:49:00,
2015-09-03 02:54:00,62.8,61.3,29.88,ESE,116,0.0,0.0,95,0.00,,,0.00,Wunderground v.1.15,2015-09-03 06:54:00,
2015-09-03 02:59:00,62.7,61.2,29.87,ESE,116,0.0,0.0,95,0.00,,,0.00,Wunderground v.1.15,2015-09-03 06:59:00,
2015-09-03 03:04:00,62.8,61.3,29.87,ESE,115,0.0,0.0,95,0.00,,,0.00,Wunderground v.1.15,2015-09-03 07:04:00,
2015-09-03 03:09:00,62.7,61.2,29.88,ESE,115,0.0,0.0,95,0.00,,,0.00,Wunderground v.1.15,2015-09-03 07:09:00,
2015-09-03 03:14:00,62.6,61.1,29.88,ESE,115,0.0,0.0,95,0.00,,,0.00,Wunderground v.1.15,2015-09-03 07:14:00,
2015-09-03 03:19:00,62.6,61.1,29.88,ESE,115,0.0,0.0,95,0.00,,,0.00,Wunderground v.1.15,2015-09-03 07:19:00,
2015-09-03 03:24:00,62.6,61.1,29.88,ESE,115,0.0,0.0,95,0.00,,,0.00,Wunderground v.1.15,2015-09-03 07:24:00,
2015-09-03 03:29:00,62.5,61.0,29.88,ESE,115,0.0,0.0,95,0.00,,,0.00,Wunderground v.1.15,2015-09-03 07:29:00,
2015-09-03 03:34:00,62.5,61.0,29.88,ESE,116,0.0,0.0,95,0.00,,,0.00,Wunderground v.1.15,2015-09-03 07:34:00,
2015-09-03 03:39:00,62.5,61.0,29.88,ESE,115,0.0,0.0,95,0.00,,,0.00,Wunderground v.1.15,2015-09-03 07:39:00,
2015-09-03 03:44:00,62.6,61.4,29.88,ESE,115,0.0,0.0,96,0.00,,,0.00,Wunderground v.1.15,2015-09-03 07:44:00,
2015-09-03 03:49:00,62.7,61.5,29.88,ESE,115,0.0,0.0,96,0.00,,,0.00,Wunderground v.1.15,2015-09-03 07:49:00,
2015-09-03 03:54:00,62.7,61.5,29.88,ESE,115,0.0,0.0,96,0.00,,,0.00,Wunderground v.1.15,2015-09-03 07:54:00,
2015-09-03 03:59:00,62.6,61.4,29.88,ESE,116,0.0,0.0,96,0.00,,,0.00,Wunderground v.1.15,2015-09-03 07:59:00,
2015-09-03 04:04:00,62.7,61.5,29.88,ESE,115,0.0,0.0,96,0.00,,,0.00,Wunderground v.1.15,2015-09-03 08:04:00,
2015-09-03 04:09:00,62.8,61.6,29.88,ESE,115,0.0,0.0,96,0.00,,,0.00,Wunderground v.1.15,2015-09-03 08:09:00,
2015-09-03 04:14:00,62.7,61.5,29.88,ESE,115,0.0,0.0,96,0.00,,,0.00,Wunderground v.1.15,2015-09-03 08:14:00,
2015-09-03 04:19:00,62.7,61.5,29.88,ESE,115,0.0,0.0,96,0.00,,,0.00,Wunderground v.1.15,2015-09-03 08:19:00,
2015-09-03 04:24:00,62.7,61.5,29.88,ESE,115,0.0,0.0,96,0.00,,,0.00,Wunderground v.1.15,2015-09-03 08:24:00,
2015-09-03 04:29:00,62.8,61.6,29.87,ESE,116,0.0,0.0,96,0.00,,,0.00,Wunderground v.1.15,2015-09-03 08:29:00,
2015-09-03 04:34:00,62.6,61.4,29.88,ESE,115,0.0,0.0,96,0.00,,,0.00,Wunderground v.1.15,2015-09-03 08:34:00,
2015-09-03 04:39:00,62.6,61.4,29.87,ESE,116,0.0,0.0,96,0.00,,,0.00,Wunderground v.1.15,2015-09-03 08:39:00,
2015-09-03 04:44:00,62.6,61.4,29.87,ESE,117,0.0,1.0,96,0.00,,,0.00,Wunderground v.1.15,2015-09-03 08:44:00,
2015-09-03 04:49:00,62.5,61.3,29.87,ESE,117,0.0,1.0,96,0.00,,,0.00,Wunderground v.1.15,2015-09-03 08:49:00,
2015-09-03 04:54:00,62.5,61.3,29.87,ESE,117,0.0,0.0,96,0.00,,,0.00,Wunderground v.1.15,2015-09-03 08:54:00,
2015-09-03 04:59:00,62.5,61.3,29.87,ESE,117,0.0,0.0,96,0.00,,,0.00,Wunderground v.1.15,2015-09-03 08:59:00,
2015-09-03 05:04:00,62.5,61.3,29.87,ESE,117,0.0,0.0,96,0.00,,,0.00,Wunderground v.1.15,2015-09-03 09:04:00,
2015-09-03 05:09:00,62.4,61.2,29.87,ESE,117,0.0,0.0,96,0.00,,,0.00,Wunderground v.1.15,2015-09-03 09:09:00,
2015-09-03 05:14:00,62.4,61.2,29.87,ESE,117,0.0,0.0,96,0.00,,,0.00,Wunderground v.1.15,2015-09-03 09:14:00,
2015-09-03 05:19:00,62.4,61.2,29.87,ESE,117,0.0,0.0,96,0.00,,,0.00,Wunderground v.1.15,2015-09-03 09:19:00,
2015-09-03 05:24:00,62.5,61.3,29.87,ESE,117,0.0,0.0,96,0.00,,,0.00,Wunderground v.1.15,2015-09-03 09:24:00,
2015-09-03 05:29:00,62.6,61.4,29.87,ESE,117,0.0,0.0,96,0.00,,,0.00,Wunderground v.1.15,2015-09-03 09:29:00,
2015-09-03 05:34:00,62.5,61.3,29.87,ESE,117,0.0,0.0,96,0.00,,,0.00,Wunderground v.1.15,2015-09-03 09:34:00,
2015-09-03 05:39:00,62.4,61.2,29.87,ESE,117,0.0,0.0,96,0.00,,,0.00,Wunderground v.1.15,2015-09-03 09:39:00,
2015-09-03 05:44:00,62.5,61.3,29.87,ESE,117,0.0,0.0,96,0.00,,,0.00,Wunderground v.1.15,2015-09-03 09:44:00,
2015-09-03 05:49:00,62.5,61.3,29.87,ESE,117,0.0,0.0,96,0.00,,,0.00,Wunderground v.1.15,2015-09-03 09:49:00,
2015-09-03 05:54:00,62.6,61.4,29.88,ESE,117,0.0,0.0,96,0.00,,,0.00,Wunderground v.1.15,2015-09-03 09:54:00,
2015-09-03 05:59:00,62.6,61.4,29.88,ESE,117,0.0,0.0,96,0.00,,,0.00,Wunderground v.1.15,2015-09-03 09:59:00,
2015-09-03 06:04:00,62.7,61.5,29.88,ESE,117,0.0,0.0,96,0.00,,,0.00,Wunderground v.1.15,2015-09-03 10:04:00,
2015-09-03 06:09:00,62.6,61.4,29.88,ESE,117,0.0,0.0,96,0.00,,,0.00,Wunderground v.1.15,2015-09-03 10:09:00,
2015-09-03 06:14:00,62.5,61.3,29.88,ESE,117,0.0,0.0,96,0.00,,,0.00,Wunderground v.1.15,2015-09-03 10:14:00,
2015-09-03 06:20:00,62.5,61.3,29.88,ESE,117,0.0,0.0,96,0.00,,,0.00,Wunderground v.1.15,2015-09-03 10:20:00,
2015-09-03 06:24:00,62.6,61.4,29.88,ESE,117,0.0,0.0,96,0.00,,,0.00,Wunderground v.1.15,2015-09-03 10:24:00,
2015-09-03 06:29:00,62.6,61.4,29.89,ESE,117,0.0,0.0,96,0.00,,,0.00,Wunderground v.1.15,2015-09-03 10:29:00,
2015-09-03 06:34:00,62.5,61.3,29.89,ESE,117,0.0,0.0,96,0.00,,,0.00,Wunderground v.1.15,2015-09-03 10:34:00,
2015-09-03 06:40:00,62.4,61.2,29.89,ESE,117,0.0,0.0,96,0.00,,,0.00,Wunderground v.1.15,2015-09-03 10:40:00,
2015-09-03 06:44:00,62.5,61.3,29.89,ESE,117,0.0,0.0,96,0.00,,,0.00,Wunderground v.1.15,2015-09-03 10:44:00,
2015-09-03 06:49:00,62.5,61.3,29.89,ESE,117,0.0,0.0,96,0.00,,,0.00,Wunderground v.1.15,2015-09-03 10:49:00,
2015-09-03 06:54:00,62.6,61.4,29.89,ESE,117,0.0,0.0,96,0.00,,,0.00,Wunderground v.1.15,2015-09-03 10:54:00,
2015-09-03 06:59:00,62.6,61.4,29.89,ESE,117,0.0,0.0,96,0.00,,,0.00,Wunderground v.1.15,2015-09-03 10:59:00,
2015-09-03 07:04:00,62.6,61.4,29.89,ESE,117,0.0,0.0,96,0.00,,,0.00,Wunderground v.1.15,2015-09-03 11:04:00,
2015-09-03 07:10:00,62.8,61.9,29.89,ESE,117,0.0,0.0,97,0.00,,,0.00,Wunderground v.1.15,2015-09-03 11:10:00,
2015-09-03 07:14:00,63.0,62.1,29.90,ESE,117,0.0,0.0,97,0.00,,,0.00,Wunderground v.1.15,2015-09-03 11:14:00,
2015-09-03 07:19:00,63.1,62.2,29.90,ESE,117,0.0,0.0,97,0.00,,,0.00,Wunderground v.1.15,2015-09-03 11:19:00,
2015-09-03 07:24:00,63.3,62.4,29.90,ESE,117,0.0,0.0,97,0.00,,,0.00,Wunderground v.1.15,2015-09-03 11:24:00,
2015-09-03 07:29:00,63.5,62.6,29.90,ESE,117,0.0,0.0,97,0.00,,,0.00,Wunderground v.1.15,2015-09-03 11:29:00,
2015-09-03 07:34:00,63.7,62.8,29.90,ESE,117,0.0,0.0,97,0.00,,,0.00,Wunderground v.1.15,2015-09-03 11:34:00,
2015-09-03 07:40:00,64.0,63.1,29.90,ESE,117,0.0,0.0,97,0.00,,,0.00,Wunderground v.1.15,2015-09-03 11:40:00,
2015-09-03 07:45:00,64.3,63.4,29.90,ESE,117,0.0,0.0,97,0.00,,,0.00,Wunderground v.1.15,2015-09-03 11:45:00,
2015-09-03 07:50:00,64.8,63.9,29.91,ESE,117,0.0,1.0,97,0.00,,,0.00,Wunderground v.1.15,2015-09-03 11:50:00,
2015-09-03 07:55:00,64.9,64.0,29.91,ESE,117,0.0,1.0,97,0.00,,,0.00,Wunderground v.1.15,2015-09-03 11:55:00,
2015-09-03 08:00:00,65.4,64.5,29.91,SE,125,0.0,1.0,97,0.00,,,0.00,Wunderground v.1.15,2015-09-03 12:00:00,
2015-09-03 08:05:00,65.8,64.9,29.91,SE,125,0.0,1.0,97,0.00,,,0.00,Wunderground v.1.15,2015-09-03 12:05:00,
2015-09-03 08:10:00,66.2,65.3,29.91,SE,125,0.0,1.0,97,0.00,,,0.00,Wunderground v.1.15,2015-09-03 12:10:00,
2015-09-03 08:15:00,66.6,65.7,29.91,SE,126,0.0,1.0,97,0.00,,,0.00,Wunderground v.1.15,2015-09-03 12:15:00,
2015-09-03 08:20:00,66.9,66.0,29.90,SE,126,0.0,1.0,97,0.00,,,0.00,Wunderground v.1.15,2015-09-03 12:20:00,
2015-09-03 08:25:00,67.4,66.5,29.90,SE,125,0.0,0.0,97,0.00,,,0.00,Wunderground v.1.15,2015-09-03 12:25:00,
2015-09-03 08:30:00,67.8,66.6,29.91,SE,126,0.0,1.0,96,0.00,,,0.00,Wunderground v.1.15,2015-09-03 12:30:00,
2015-09-03 08:35:00,68.4,66.9,29.91,SE,125,0.0,0.0,95,0.00,,,0.00,Wunderground v.1.15,2015-09-03 12:35:00,
2015-09-03 08:40:00,69.0,67.5,29.91,SE,126,0.0,1.0,95,0.00,,,0.00,Wunderground v.1.15,2015-09-03 12:40:00,
2015-09-03 08:45:00,69.5,67.7,29.91,SE,144,0.0,1.0,94,0.00,,,0.00,Wunderground v.1.15,2015-09-03 12:45:00,
2015-09-03 08:50:00,69.9,68.1,29.90,SE,144,0.0,1.0,94,0.00,,,0.00,Wunderground v.1.15,2015-09-03 12:50:00,
2015-09-03 08:55:00,70.3,68.2,29.91,SE,143,0.0,0.0,93,0.00,,,0.00,Wunderground v.1.15,2015-09-03 12:55:00,
2015-09-03 09:01:00,70.7,68.3,29.90,SE,143,0.0,0.0,92,0.00,,,0.00,Wunderground v.1.15,2015-09-03 13:01:00,
2015-09-03 09:06:00,71.3,68.5,29.90,SE,143,0.0,0.0,91,0.00,,,0.00,Wunderground v.1.15,2015-09-03 13:06:00,